sensor_id;sensor_type;location;lat;lon;timestamp;P1;durP1;ratioP1;P2;durP2;ratioP2
60203;SDS011;46068;52.132;4.618;2023-10-13T00:00:25;10.40;;;4.38;;
60203;SDS011;46068;52.132;4.618;2023-10-13T00:02:51;14.23;;;4.55;;
60203;SDS011;46068;52.132;4.618;2023-10-13T00:05:17;15.20;;;4.28;;
60203;SDS011;46068;52.132;4.618;2023-10-13T00:07:44;13.38;;;5.13;;
60203;SDS011;46068;52.132;4.618;2023-10-13T00:10:10;15.20;;;5.15;;
60203;SDS011;46068;52.132;4.618;2023-10-13T00:12:37;13.18;;;4.13;;
60203;SDS011;46068;52.132;4.618;2023-10-13T00:15:03;13.02;;;5.00;;
60203;SDS011;46068;52.132;4.618;2023-10-13T00:17:29;16.35;;;4.97;;
60203;SDS011;46068;52.132;4.618;2023-10-13T00:19:57;14.60;;;5.88;;
60203;SDS011;46068;52.132;4.618;2023-10-13T00:22:25;14.20;;;6.20;;
60203;SDS011;46068;52.132;4.618;2023-10-13T00:24:56;16.17;;;7.32;;
60203;SDS011;46068;52.132;4.618;2023-10-13T00:27:24;15.88;;;7.50;;
60203;SDS011;46068;52.132;4.618;2023-10-13T00:29:54;12.15;;;6.90;;
60203;SDS011;46068;52.132;4.618;2023-10-13T00:32:40;15.02;;;7.50;;
60203;SDS011;46068;52.132;4.618;2023-10-13T00:35:09;13.48;;;7.85;;
60203;SDS011;46068;52.132;4.618;2023-10-13T00:37:40;12.77;;;7.57;;
60203;SDS011;46068;52.132;4.618;2023-10-13T00:40:09;18.00;;;7.82;;
60203;SDS011;46068;52.132;4.618;2023-10-13T00:42:57;10.93;;;7.20;;
60203;SDS011;46068;52.132;4.618;2023-10-13T00:45:43;11.82;;;7.15;;
60203;SDS011;46068;52.132;4.618;2023-10-13T00:48:09;15.27;;;6.63;;
60203;SDS011;46068;52.132;4.618;2023-10-13T00:50:36;10.27;;;7.20;;
60203;SDS011;46068;52.132;4.618;2023-10-13T00:53:03;16.50;;;7.97;;
60203;SDS011;46068;52.132;4.618;2023-10-13T00:55:28;13.30;;;9.02;;
60203;SDS011;46068;52.132;4.618;2023-10-13T00:57:59;17.05;;;9.60;;
60203;SDS011;46068;52.132;4.618;2023-10-13T01:00:28;18.67;;;10.82;;
60203;SDS011;46068;52.132;4.618;2023-10-13T01:02:53;19.33;;;12.07;;
60203;SDS011;46068;52.132;4.618;2023-10-13T01:05:21;18.73;;;11.82;;
60203;SDS011;46068;52.132;4.618;2023-10-13T01:07:46;21.48;;;11.65;;
60203;SDS011;46068;52.132;4.618;2023-10-13T01:10:15;19.05;;;11.93;;
60203;SDS011;46068;52.132;4.618;2023-10-13T01:12:41;21.20;;;13.13;;
60203;SDS011;46068;52.132;4.618;2023-10-13T01:15:09;22.15;;;13.95;;
60203;SDS011;46068;52.132;4.618;2023-10-13T01:17:36;19.45;;;14.30;;
60203;SDS011;46068;52.132;4.618;2023-10-13T01:20:02;21.48;;;14.20;;
60203;SDS011;46068;52.132;4.618;2023-10-13T01:22:29;23.88;;;15.65;;
60203;SDS011;46068;52.132;4.618;2023-10-13T01:24:57;24.20;;;15.48;;
60203;SDS011;46068;52.132;4.618;2023-10-13T01:27:34;23.90;;;16.23;;
60203;SDS011;46068;52.132;4.618;2023-10-13T01:30:03;24.23;;;14.73;;
60203;SDS011;46068;52.132;4.618;2023-10-13T01:32:31;25.63;;;14.48;;
60203;SDS011;46068;52.132;4.618;2023-10-13T01:34:56;23.27;;;14.32;;
60203;SDS011;46068;52.132;4.618;2023-10-13T01:37:29;21.25;;;13.45;;
60203;SDS011;46068;52.132;4.618;2023-10-13T01:39:55;20.15;;;12.32;;
60203;SDS011;46068;52.132;4.618;2023-10-13T01:42:21;23.88;;;12.77;;
60203;SDS011;46068;52.132;4.618;2023-10-13T01:44:47;18.08;;;10.93;;
60203;SDS011;46068;52.132;4.618;2023-10-13T01:47:12;20.75;;;10.52;;
60203;SDS011;46068;52.132;4.618;2023-10-13T01:49:38;19.77;;;10.40;;
60203;SDS011;46068;52.132;4.618;2023-10-13T01:52:07;19.48;;;10.10;;
60203;SDS011;46068;52.132;4.618;2023-10-13T01:54:33;18.33;;;9.98;;
60203;SDS011;46068;52.132;4.618;2023-10-13T01:56:58;19.70;;;10.15;;
60203;SDS011;46068;52.132;4.618;2023-10-13T01:59:25;22.15;;;9.75;;
60203;SDS011;46068;52.132;4.618;2023-10-13T02:01:51;19.13;;;9.60;;
60203;SDS011;46068;52.132;4.618;2023-10-13T02:04:20;25.00;;;11.65;;
60203;SDS011;46068;52.132;4.618;2023-10-13T02:06:46;18.52;;;10.45;;
60203;SDS011;46068;52.132;4.618;2023-10-13T02:09:12;19.35;;;11.35;;
60203;SDS011;46068;52.132;4.618;2023-10-13T02:11:38;24.38;;;11.25;;
60203;SDS011;46068;52.132;4.618;2023-10-13T02:14:04;15.25;;;10.60;;
60203;SDS011;46068;52.132;4.618;2023-10-13T02:16:30;18.50;;;10.85;;
60203;SDS011;46068;52.132;4.618;2023-10-13T02:18:56;18.17;;;11.15;;
60203;SDS011;46068;52.132;4.618;2023-10-13T02:21:22;22.02;;;11.98;;
60203;SDS011;46068;52.132;4.618;2023-10-13T02:23:56;18.65;;;12.10;;
60203;SDS011;46068;52.132;4.618;2023-10-13T02:26:25;25.40;;;11.85;;
60203;SDS011;46068;52.132;4.618;2023-10-13T02:28:55;13.85;;;10.38;;
60203;SDS011;46068;52.132;4.618;2023-10-13T02:31:22;17.08;;;10.85;;
60203;SDS011;46068;52.132;4.618;2023-10-13T02:33:50;21.17;;;10.93;;
60203;SDS011;46068;52.132;4.618;2023-10-13T02:36:15;16.00;;;10.82;;
60203;SDS011;46068;52.132;4.618;2023-10-13T02:38:47;25.80;;;11.98;;
60203;SDS011;46068;52.132;4.618;2023-10-13T02:41:13;17.52;;;11.57;;
60203;SDS011;46068;52.132;4.618;2023-10-13T02:43:44;17.63;;;11.15;;
60203;SDS011;46068;52.132;4.618;2023-10-13T02:46:10;16.20;;;10.82;;
60203;SDS011;46068;52.132;4.618;2023-10-13T02:48:35;18.95;;;10.93;;
60203;SDS011;46068;52.132;4.618;2023-10-13T02:51:06;17.40;;;10.35;;
60203;SDS011;46068;52.132;4.618;2023-10-13T02:53:40;18.92;;;10.25;;
60203;SDS011;46068;52.132;4.618;2023-10-13T02:56:06;20.70;;;10.48;;
60203;SDS011;46068;52.132;4.618;2023-10-13T02:58:31;18.67;;;10.35;;
60203;SDS011;46068;52.132;4.618;2023-10-13T03:01:06;16.80;;;11.07;;
60203;SDS011;46068;52.132;4.618;2023-10-13T03:03:42;20.73;;;11.68;;
60203;SDS011;46068;52.132;4.618;2023-10-13T03:06:09;18.30;;;11.35;;
60203;SDS011;46068;52.132;4.618;2023-10-13T03:08:36;19.42;;;11.38;;
60203;SDS011;46068;52.132;4.618;2023-10-13T03:11:02;19.20;;;11.00;;
60203;SDS011;46068;52.132;4.618;2023-10-13T03:13:30;20.88;;;11.23;;
60203;SDS011;46068;52.132;4.618;2023-10-13T03:15:58;18.25;;;10.77;;
60203;SDS011;46068;52.132;4.618;2023-10-13T03:18:23;17.52;;;10.30;;
60203;SDS011;46068;52.132;4.618;2023-10-13T03:20:50;19.00;;;11.88;;
60203;SDS011;46068;52.132;4.618;2023-10-13T03:23:22;21.77;;;12.88;;
60203;SDS011;46068;52.132;4.618;2023-10-13T03:25:49;23.25;;;12.70;;
60203;SDS011;46068;52.132;4.618;2023-10-13T03:28:15;23.90;;;11.68;;
60203;SDS011;46068;52.132;4.618;2023-10-13T03:30:42;18.67;;;10.00;;
60203;SDS011;46068;52.132;4.618;2023-10-13T03:33:08;15.55;;;8.95;;
60203;SDS011;46068;52.132;4.618;2023-10-13T03:35:37;15.20;;;8.18;;
60203;SDS011;46068;52.132;4.618;2023-10-13T03:38:03;13.18;;;7.60;;
60203;SDS011;46068;52.132;4.618;2023-10-13T03:40:30;11.95;;;7.07;;
60203;SDS011;46068;52.132;4.618;2023-10-13T03:43:01;11.02;;;6.88;;
60203;SDS011;46068;52.132;4.618;2023-10-13T03:45:30;13.90;;;6.57;;
60203;SDS011;46068;52.132;4.618;2023-10-13T03:48:02;11.90;;;5.90;;
60203;SDS011;46068;52.132;4.618;2023-10-13T03:50:33;12.10;;;5.55;;
60203;SDS011;46068;52.132;4.618;2023-10-13T03:53:01;10.23;;;4.53;;
60203;SDS011;46068;52.132;4.618;2023-10-13T03:55:27;10.40;;;4.68;;
60203;SDS011;46068;52.132;4.618;2023-10-13T03:57:54;12.82;;;4.25;;
60203;SDS011;46068;52.132;4.618;2023-10-13T04:00:20;13.02;;;4.53;;
60203;SDS011;46068;52.132;4.618;2023-10-13T04:02:49;6.22;;;3.60;;
60203;SDS011;46068;52.132;4.618;2023-10-13T04:05:25;8.57;;;3.95;;
60203;SDS011;46068;52.132;4.618;2023-10-13T04:08:01;10.30;;;4.07;;
60203;SDS011;46068;52.132;4.618;2023-10-13T04:10:47;11.90;;;5.00;;
60203;SDS011;46068;52.132;4.618;2023-10-13T04:13:32;7.25;;;4.70;;
60203;SDS011;46068;52.132;4.618;2023-10-13T04:16:35;8.80;;;5.55;;
60203;SDS011;46068;52.132;4.618;2023-10-13T04:19:12;11.32;;;6.07;;
60203;SDS011;46068;52.132;4.618;2023-10-13T04:21:47;13.23;;;7.05;;
60203;SDS011;46068;52.132;4.618;2023-10-13T04:24:39;13.13;;;6.57;;
60203;SDS011;46068;52.132;4.618;2023-10-13T04:27:24;13.55;;;8.32;;
60203;SDS011;46068;52.132;4.618;2023-10-13T04:30:05;10.45;;;6.85;;
60203;SDS011;46068;52.132;4.618;2023-10-13T04:32:49;10.98;;;7.32;;
60203;SDS011;46068;52.132;4.618;2023-10-13T04:35:31;9.43;;;5.70;;
60203;SDS011;46068;52.132;4.618;2023-10-13T04:38:01;11.68;;;4.70;;
60203;SDS011;46068;52.132;4.618;2023-10-13T04:40:40;8.10;;;4.93;;
60203;SDS011;46068;52.132;4.618;2023-10-13T04:43:21;6.25;;;4.50;;
60203;SDS011;46068;52.132;4.618;2023-10-13T04:45:59;6.43;;;4.47;;
60203;SDS011;46068;52.132;4.618;2023-10-13T04:48:24;7.47;;;5.38;;
60203;SDS011;46068;52.132;4.618;2023-10-13T04:51:03;9.00;;;5.28;;
60203;SDS011;46068;52.132;4.618;2023-10-13T04:53:52;8.75;;;5.10;;
60203;SDS011;46068;52.132;4.618;2023-10-13T04:56:29;8.85;;;5.10;;
60203;SDS011;46068;52.132;4.618;2023-10-13T04:59:13;11.90;;;5.18;;
60203;SDS011;46068;52.132;4.618;2023-10-13T05:01:43;6.70;;;4.70;;
60203;SDS011;46068;52.132;4.618;2023-10-13T05:04:46;12.65;;;5.53;;
60203;SDS011;46068;52.132;4.618;2023-10-13T05:07:29;12.88;;;4.97;;
60203;SDS011;46068;52.132;4.618;2023-10-13T05:10:13;11.48;;;4.47;;
60203;SDS011;46068;52.132;4.618;2023-10-13T05:12:56;10.20;;;4.25;;
60203;SDS011;46068;52.132;4.618;2023-10-13T05:15:55;13.35;;;4.15;;
60203;SDS011;46068;52.132;4.618;2023-10-13T05:18:39;13.43;;;4.50;;
60203;SDS011;46068;52.132;4.618;2023-10-13T05:21:23;12.43;;;4.40;;
60203;SDS011;46068;52.132;4.618;2023-10-13T05:24:07;10.30;;;3.80;;
60203;SDS011;46068;52.132;4.618;2023-10-13T05:26:51;13.68;;;4.40;;
60203;SDS011;46068;52.132;4.618;2023-10-13T05:29:38;13.52;;;4.60;;
60203;SDS011;46068;52.132;4.618;2023-10-13T05:32:27;11.30;;;4.03;;
60203;SDS011;46068;52.132;4.618;2023-10-13T05:35:11;15.55;;;4.55;;
60203;SDS011;46068;52.132;4.618;2023-10-13T05:37:55;13.77;;;4.25;;
60203;SDS011;46068;52.132;4.618;2023-10-13T05:40:39;13.80;;;3.97;;
60203;SDS011;46068;52.132;4.618;2023-10-13T05:43:22;14.50;;;3.83;;
60203;SDS011;46068;52.132;4.618;2023-10-13T05:46:06;11.98;;;4.30;;
60203;SDS011;46068;52.132;4.618;2023-10-13T05:49:14;12.07;;;3.80;;
60203;SDS011;46068;52.132;4.618;2023-10-13T05:51:55;10.95;;;3.97;;
60203;SDS011;46068;52.132;4.618;2023-10-13T05:54:31;11.73;;;3.75;;
60203;SDS011;46068;52.132;4.618;2023-10-13T05:57:15;15.57;;;3.97;;
60203;SDS011;46068;52.132;4.618;2023-10-13T05:59:59;10.82;;;3.65;;
60203;SDS011;46068;52.132;4.618;2023-10-13T06:02:57;8.50;;;3.58;;
60203;SDS011;46068;52.132;4.618;2023-10-13T06:05:41;10.10;;;3.65;;
60203;SDS011;46068;52.132;4.618;2023-10-13T06:08:26;9.10;;;3.72;;
60203;SDS011;46068;52.132;4.618;2023-10-13T06:11:10;10.70;;;3.58;;
60203;SDS011;46068;52.132;4.618;2023-10-13T06:13:53;11.15;;;3.90;;
60203;SDS011;46068;52.132;4.618;2023-10-13T06:16:37;10.30;;;4.10;;
60203;SDS011;46068;52.132;4.618;2023-10-13T06:19:21;13.07;;;4.07;;
60203;SDS011;46068;52.132;4.618;2023-10-13T06:22:05;15.15;;;5.20;;
60203;SDS011;46068;52.132;4.618;2023-10-13T06:24:49;19.30;;;8.18;;
60203;SDS011;46068;52.132;4.618;2023-10-13T06:27:35;16.40;;;6.00;;
60203;SDS011;46068;52.132;4.618;2023-10-13T06:30:19;11.82;;;4.30;;
60203;SDS011;46068;52.132;4.618;2023-10-13T06:32:44;13.85;;;3.92;;
60203;SDS011;46068;52.132;4.618;2023-10-13T06:35:11;8.93;;;4.40;;
60203;SDS011;46068;52.132;4.618;2023-10-13T06:37:44;12.43;;;4.60;;
60203;SDS011;46068;52.132;4.618;2023-10-13T06:40:11;13.18;;;4.85;;
60203;SDS011;46068;52.132;4.618;2023-10-13T06:42:47;11.32;;;4.63;;
60203;SDS011;46068;52.132;4.618;2023-10-13T06:45:13;10.25;;;5.15;;
60203;SDS011;46068;52.132;4.618;2023-10-13T06:47:41;11.05;;;5.40;;
60203;SDS011;46068;52.132;4.618;2023-10-13T06:50:08;9.38;;;5.40;;
60203;SDS011;46068;52.132;4.618;2023-10-13T06:52:40;13.60;;;5.30;;
60203;SDS011;46068;52.132;4.618;2023-10-13T06:55:07;15.80;;;6.30;;
60203;SDS011;46068;52.132;4.618;2023-10-13T06:57:36;14.38;;;6.03;;
60203;SDS011;46068;52.132;4.618;2023-10-13T07:00:08;17.95;;;7.07;;
60203;SDS011;46068;52.132;4.618;2023-10-13T07:02:37;15.35;;;7.07;;
60203;SDS011;46068;52.132;4.618;2023-10-13T07:05:03;18.23;;;8.50;;
60203;SDS011;46068;52.132;4.618;2023-10-13T07:07:32;16.60;;;7.65;;
60203;SDS011;46068;52.132;4.618;2023-10-13T07:09:58;16.27;;;7.95;;
60203;SDS011;46068;52.132;4.618;2023-10-13T07:12:24;16.40;;;8.15;;
60203;SDS011;46068;52.132;4.618;2023-10-13T07:14:52;16.08;;;8.90;;
60203;SDS011;46068;52.132;4.618;2023-10-13T07:17:18;19.13;;;8.90;;
60203;SDS011;46068;52.132;4.618;2023-10-13T07:19:49;20.52;;;9.55;;
60203;SDS011;46068;52.132;4.618;2023-10-13T07:22:18;22.42;;;9.32;;
60203;SDS011;46068;52.132;4.618;2023-10-13T07:24:44;22.05;;;9.95;;
60203;SDS011;46068;52.132;4.618;2023-10-13T07:27:13;21.23;;;10.02;;
60203;SDS011;46068;52.132;4.618;2023-10-13T07:29:47;19.58;;;8.55;;
60203;SDS011;46068;52.132;4.618;2023-10-13T07:32:15;18.70;;;8.60;;
60203;SDS011;46068;52.132;4.618;2023-10-13T07:34:49;25.73;;;10.38;;
60203;SDS011;46068;52.132;4.618;2023-10-13T07:37:15;27.38;;;9.70;;
60203;SDS011;46068;52.132;4.618;2023-10-13T07:39:41;23.08;;;9.25;;
60203;SDS011;46068;52.132;4.618;2023-10-13T07:42:07;18.38;;;7.75;;
60203;SDS011;46068;52.132;4.618;2023-10-13T07:44:40;21.85;;;7.80;;
60203;SDS011;46068;52.132;4.618;2023-10-13T07:47:11;17.27;;;6.93;;
60203;SDS011;46068;52.132;4.618;2023-10-13T07:49:37;16.33;;;6.20;;
60203;SDS011;46068;52.132;4.618;2023-10-13T07:52:05;17.88;;;6.30;;
60203;SDS011;46068;52.132;4.618;2023-10-13T07:54:49;16.63;;;5.32;;
60203;SDS011;46068;52.132;4.618;2023-10-13T07:57:20;16.73;;;5.78;;
60203;SDS011;46068;52.132;4.618;2023-10-13T07:59:54;20.38;;;5.30;;
60203;SDS011;46068;52.132;4.618;2023-10-13T08:02:31;14.23;;;5.30;;
60203;SDS011;46068;52.132;4.618;2023-10-13T08:05:12;12.48;;;4.97;;
60203;SDS011;46068;52.132;4.618;2023-10-13T08:07:49;14.93;;;5.20;;
60203;SDS011;46068;52.132;4.618;2023-10-13T08:10:15;15.13;;;5.25;;
60203;SDS011;46068;52.132;4.618;2023-10-13T08:12:42;11.80;;;5.03;;
60203;SDS011;46068;52.132;4.618;2023-10-13T08:15:09;13.65;;;4.90;;
60203;SDS011;46068;52.132;4.618;2023-10-13T08:17:46;18.70;;;4.35;;
60203;SDS011;46068;52.132;4.618;2023-10-13T08:20:12;16.60;;;5.20;;
60203;SDS011;46068;52.132;4.618;2023-10-13T08:22:38;17.40;;;4.75;;
60203;SDS011;46068;52.132;4.618;2023-10-13T08:25:04;17.20;;;4.97;;
60203;SDS011;46068;52.132;4.618;2023-10-13T08:27:49;15.43;;;5.05;;
60203;SDS011;46068;52.132;4.618;2023-10-13T08:30:30;16.58;;;4.70;;
60203;SDS011;46068;52.132;4.618;2023-10-13T08:32:55;17.48;;;4.78;;
60203;SDS011;46068;52.132;4.618;2023-10-13T08:35:24;16.45;;;4.30;;
60203;SDS011;46068;52.132;4.618;2023-10-13T08:38:03;13.95;;;4.35;;
60203;SDS011;46068;52.132;4.618;2023-10-13T08:40:43;18.35;;;5.22;;
60203;SDS011;46068;52.132;4.618;2023-10-13T08:43:42;18.88;;;5.40;;
60203;SDS011;46068;52.132;4.618;2023-10-13T08:46:10;13.80;;;4.50;;
60203;SDS011;46068;52.132;4.618;2023-10-13T08:48:50;16.67;;;5.30;;
60203;SDS011;46068;52.132;4.618;2023-10-13T08:51:16;14.05;;;4.85;;
60203;SDS011;46068;52.132;4.618;2023-10-13T08:53:56;14.05;;;3.83;;
60203;SDS011;46068;52.132;4.618;2023-10-13T08:56:33;16.42;;;4.72;;
60203;SDS011;46068;52.132;4.618;2023-10-13T08:58:59;17.55;;;4.57;;
60203;SDS011;46068;52.132;4.618;2023-10-13T09:01:31;21.00;;;4.82;;
60203;SDS011;46068;52.132;4.618;2023-10-13T09:04:00;14.20;;;4.80;;
60203;SDS011;46068;52.132;4.618;2023-10-13T09:06:46;18.67;;;4.97;;
60203;SDS011;46068;52.132;4.618;2023-10-13T09:09:12;14.10;;;4.60;;
60203;SDS011;46068;52.132;4.618;2023-10-13T09:11:51;24.15;;;4.38;;
60203;SDS011;46068;52.132;4.618;2023-10-13T09:14:29;15.57;;;4.28;;
60203;SDS011;46068;52.132;4.618;2023-10-13T09:17:01;12.68;;;4.22;;
60203;SDS011;46068;52.132;4.618;2023-10-13T09:19:32;11.02;;;3.97;;
60203;SDS011;46068;52.132;4.618;2023-10-13T09:22:02;20.63;;;4.63;;
60203;SDS011;46068;52.132;4.618;2023-10-13T09:24:28;16.75;;;4.70;;
60203;SDS011;46068;52.132;4.618;2023-10-13T09:26:55;17.40;;;5.10;;
60203;SDS011;46068;52.132;4.618;2023-10-13T09:29:21;14.98;;;4.30;;
60203;SDS011;46068;52.132;4.618;2023-10-13T09:31:47;16.42;;;4.45;;
60203;SDS011;46068;52.132;4.618;2023-10-13T09:34:22;23.33;;;5.03;;
60203;SDS011;46068;52.132;4.618;2023-10-13T09:36:48;19.17;;;4.72;;
60203;SDS011;46068;52.132;4.618;2023-10-13T09:39:21;21.60;;;4.80;;
60203;SDS011;46068;52.132;4.618;2023-10-13T09:41:54;20.35;;;4.72;;
60203;SDS011;46068;52.132;4.618;2023-10-13T09:44:20;19.45;;;4.82;;
60203;SDS011;46068;52.132;4.618;2023-10-13T09:46:46;23.20;;;5.22;;
60203;SDS011;46068;52.132;4.618;2023-10-13T09:49:14;20.10;;;5.43;;
60203;SDS011;46068;52.132;4.618;2023-10-13T09:51:59;18.08;;;4.85;;
60203;SDS011;46068;52.132;4.618;2023-10-13T09:54:29;19.90;;;4.47;;
60203;SDS011;46068;52.132;4.618;2023-10-13T09:56:57;13.55;;;4.85;;
60203;SDS011;46068;52.132;4.618;2023-10-13T09:59:27;16.63;;;4.32;;
60203;SDS011;46068;52.132;4.618;2023-10-13T10:01:59;16.25;;;4.70;;
60203;SDS011;46068;52.132;4.618;2023-10-13T10:04:33;19.60;;;4.85;;
60203;SDS011;46068;52.132;4.618;2023-10-13T10:07:00;15.63;;;4.50;;
60203;SDS011;46068;52.132;4.618;2023-10-13T10:09:26;17.70;;;4.78;;
60203;SDS011;46068;52.132;4.618;2023-10-13T10:14:53;17.48;;;4.68;;
60203;SDS011;46068;52.132;4.618;2023-10-13T10:17:21;21.52;;;4.93;;
60203;SDS011;46068;52.132;4.618;2023-10-13T10:19:48;14.68;;;4.78;;
60203;SDS011;46068;52.132;4.618;2023-10-13T10:22:24;17.77;;;4.20;;
60203;SDS011;46068;52.132;4.618;2023-10-13T10:24:55;18.67;;;5.25;;
60203;SDS011;46068;52.132;4.618;2023-10-13T10:27:23;16.90;;;4.63;;
60203;SDS011;46068;52.132;4.618;2023-10-13T10:29:53;17.85;;;3.92;;
60203;SDS011;46068;52.132;4.618;2023-10-13T10:32:19;18.42;;;4.60;;
60203;SDS011;46068;52.132;4.618;2023-10-13T10:34:44;14.45;;;3.95;;
60203;SDS011;46068;52.132;4.618;2023-10-13T10:37:10;20.23;;;5.07;;
60203;SDS011;46068;52.132;4.618;2023-10-13T10:39:37;18.38;;;5.43;;
60203;SDS011;46068;52.132;4.618;2023-10-13T10:42:10;20.02;;;5.00;;
60203;SDS011;46068;52.132;4.618;2023-10-13T10:44:40;15.88;;;4.68;;
60203;SDS011;46068;52.132;4.618;2023-10-13T10:47:09;21.08;;;5.28;;
60203;SDS011;46068;52.132;4.618;2023-10-13T10:49:36;23.08;;;5.30;;
60203;SDS011;46068;52.132;4.618;2023-10-13T10:52:02;15.50;;;4.85;;
60203;SDS011;46068;52.132;4.618;2023-10-13T10:54:29;20.58;;;4.85;;
60203;SDS011;46068;52.132;4.618;2023-10-13T10:56:56;19.95;;;5.72;;
60203;SDS011;46068;52.132;4.618;2023-10-13T10:59:33;16.45;;;4.93;;
60203;SDS011;46068;52.132;4.618;2023-10-13T11:02:02;23.27;;;5.70;;
60203;SDS011;46068;52.132;4.618;2023-10-13T11:04:28;18.90;;;5.53;;
60203;SDS011;46068;52.132;4.618;2023-10-13T11:06:59;20.92;;;5.50;;
60203;SDS011;46068;52.132;4.618;2023-10-13T11:09:25;15.35;;;5.40;;
60203;SDS011;46068;52.132;4.618;2023-10-13T11:11:57;16.48;;;5.45;;
60203;SDS011;46068;52.132;4.618;2023-10-13T11:14:23;16.63;;;5.18;;
60203;SDS011;46068;52.132;4.618;2023-10-13T11:16:49;13.77;;;5.10;;
60203;SDS011;46068;52.132;4.618;2023-10-13T11:19:18;19.23;;;5.88;;
60203;SDS011;46068;52.132;4.618;2023-10-13T11:21:46;14.27;;;5.25;;
60203;SDS011;46068;52.132;4.618;2023-10-13T11:24:12;19.63;;;5.18;;
60203;SDS011;46068;52.132;4.618;2023-10-13T11:26:38;17.45;;;5.45;;
60203;SDS011;46068;52.132;4.618;2023-10-13T11:29:14;12.63;;;5.45;;
60203;SDS011;46068;52.132;4.618;2023-10-13T11:31:39;19.92;;;5.88;;
60203;SDS011;46068;52.132;4.618;2023-10-13T11:34:09;20.02;;;5.47;;
60203;SDS011;46068;52.132;4.618;2023-10-13T11:36:36;13.32;;;5.57;;
60203;SDS011;46068;52.132;4.618;2023-10-13T11:39:02;16.88;;;5.68;;
60203;SDS011;46068;52.132;4.618;2023-10-13T11:41:30;15.15;;;5.35;;
60203;SDS011;46068;52.132;4.618;2023-10-13T11:43:59;21.90;;;5.63;;
60203;SDS011;46068;52.132;4.618;2023-10-13T11:46:38;17.38;;;4.97;;
60203;SDS011;46068;52.132;4.618;2023-10-13T11:49:22;21.83;;;5.72;;
60203;SDS011;46068;52.132;4.618;2023-10-13T11:51:59;18.70;;;5.38;;
60203;SDS011;46068;52.132;4.618;2023-10-13T11:54:41;17.15;;;5.50;;
60203;SDS011;46068;52.132;4.618;2023-10-13T11:57:07;22.48;;;5.35;;
60203;SDS011;46068;52.132;4.618;2023-10-13T11:59:33;17.83;;;4.85;;
60203;SDS011;46068;52.132;4.618;2023-10-13T12:02:01;18.10;;;5.18;;
60203;SDS011;46068;52.132;4.618;2023-10-13T12:04:45;19.08;;;5.72;;
60203;SDS011;46068;52.132;4.618;2023-10-13T12:07:16;24.42;;;6.05;;
60203;SDS011;46068;52.132;4.618;2023-10-13T12:09:46;17.75;;;5.30;;
60203;SDS011;46068;52.132;4.618;2023-10-13T12:12:28;18.58;;;4.90;;
60203;SDS011;46068;52.132;4.618;2023-10-13T12:14:55;15.98;;;5.40;;
60203;SDS011;46068;52.132;4.618;2023-10-13T12:17:21;18.33;;;5.57;;
60203;SDS011;46068;52.132;4.618;2023-10-13T12:19:51;14.70;;;5.20;;
60203;SDS011;46068;52.132;4.618;2023-10-13T12:22:17;18.35;;;5.32;;
60203;SDS011;46068;52.132;4.618;2023-10-13T12:24:51;18.70;;;5.75;;
60203;SDS011;46068;52.132;4.618;2023-10-13T12:27:18;18.60;;;5.03;;
60203;SDS011;46068;52.132;4.618;2023-10-13T12:29:44;20.38;;;5.38;;
60203;SDS011;46068;52.132;4.618;2023-10-13T12:32:11;15.27;;;5.05;;
60203;SDS011;46068;52.132;4.618;2023-10-13T12:34:38;16.77;;;5.50;;
60203;SDS011;46068;52.132;4.618;2023-10-13T12:37:23;20.02;;;5.82;;
60203;SDS011;46068;52.132;4.618;2023-10-13T12:40:15;20.95;;;5.60;;
60203;SDS011;46068;52.132;4.618;2023-10-13T12:42:59;19.23;;;5.90;;
60203;SDS011;46068;52.132;4.618;2023-10-13T12:45:44;19.77;;;5.57;;
60203;SDS011;46068;52.132;4.618;2023-10-13T12:48:28;19.48;;;5.60;;
60203;SDS011;46068;52.132;4.618;2023-10-13T12:51:12;25.35;;;6.00;;
60203;SDS011;46068;52.132;4.618;2023-10-13T12:53:45;23.77;;;5.90;;
60203;SDS011;46068;52.132;4.618;2023-10-13T12:56:11;21.77;;;5.55;;
60203;SDS011;46068;52.132;4.618;2023-10-13T12:58:37;26.83;;;6.03;;
60203;SDS011;46068;52.132;4.618;2023-10-13T13:01:02;20.17;;;5.85;;
60203;SDS011;46068;52.132;4.618;2023-10-13T13:03:31;17.95;;;6.03;;
60203;SDS011;46068;52.132;4.618;2023-10-13T13:05:57;14.07;;;5.45;;
60203;SDS011;46068;52.132;4.618;2023-10-13T13:08:23;21.77;;;5.70;;
60203;SDS011;46068;52.132;4.618;2023-10-13T13:10:48;15.52;;;5.50;;
60203;SDS011;46068;52.132;4.618;2023-10-13T13:13:15;20.10;;;5.72;;
60203;SDS011;46068;52.132;4.618;2023-10-13T13:15:49;13.43;;;5.20;;
60203;SDS011;46068;52.132;4.618;2023-10-13T13:18:15;17.45;;;5.47;;
60203;SDS011;46068;52.132;4.618;2023-10-13T13:20:40;17.48;;;5.45;;
60203;SDS011;46068;52.132;4.618;2023-10-13T13:23:17;15.98;;;5.47;;
60203;SDS011;46068;52.132;4.618;2023-10-13T13:25:44;14.43;;;5.40;;
60203;SDS011;46068;52.132;4.618;2023-10-13T13:28:10;16.77;;;5.93;;
60203;SDS011;46068;52.132;4.618;2023-10-13T13:30:36;19.08;;;6.00;;
60203;SDS011;46068;52.132;4.618;2023-10-13T13:33:03;17.77;;;5.40;;
60203;SDS011;46068;52.132;4.618;2023-10-13T13:35:35;18.23;;;5.97;;
60203;SDS011;46068;52.132;4.618;2023-10-13T13:38:01;18.90;;;5.90;;
60203;SDS011;46068;52.132;4.618;2023-10-13T13:40:36;15.35;;;5.32;;
60203;SDS011;46068;52.132;4.618;2023-10-13T13:43:02;14.68;;;5.30;;
60203;SDS011;46068;52.132;4.618;2023-10-13T13:45:27;16.05;;;5.43;;
60203;SDS011;46068;52.132;4.618;2023-10-13T13:47:53;19.10;;;5.70;;
60203;SDS011;46068;52.132;4.618;2023-10-13T13:50:20;19.58;;;6.07;;
60203;SDS011;46068;52.132;4.618;2023-10-13T13:52:49;19.90;;;6.25;;
60203;SDS011;46068;52.132;4.618;2023-10-13T13:55:17;15.30;;;6.20;;
60203;SDS011;46068;52.132;4.618;2023-10-13T13:57:43;26.00;;;7.15;;
60203;SDS011;46068;52.132;4.618;2023-10-13T14:00:09;25.17;;;8.00;;
60203;SDS011;46068;52.132;4.618;2023-10-13T14:02:41;20.73;;;6.55;;
60203;SDS011;46068;52.132;4.618;2023-10-13T14:05:12;20.42;;;6.57;;
60203;SDS011;46068;52.132;4.618;2023-10-13T14:07:40;19.65;;;6.75;;
60203;SDS011;46068;52.132;4.618;2023-10-13T14:10:06;25.50;;;7.13;;
60203;SDS011;46068;52.132;4.618;2023-10-13T14:12:41;23.15;;;6.85;;
60203;SDS011;46068;52.132;4.618;2023-10-13T14:15:07;19.33;;;6.60;;
60203;SDS011;46068;52.132;4.618;2023-10-13T14:17:44;25.10;;;6.95;;
60203;SDS011;46068;52.132;4.618;2023-10-13T14:20:11;18.20;;;6.13;;
60203;SDS011;46068;52.132;4.618;2023-10-13T14:22:44;24.38;;;7.47;;
60203;SDS011;46068;52.132;4.618;2023-10-13T14:25:12;21.38;;;6.32;;
60203;SDS011;46068;52.132;4.618;2023-10-13T14:27:39;14.23;;;5.15;;
60203;SDS011;46068;52.132;4.618;2023-10-13T14:30:05;19.83;;;5.32;;
60203;SDS011;46068;52.132;4.618;2023-10-13T14:32:31;16.02;;;4.00;;
60203;SDS011;46068;52.132;4.618;2023-10-13T14:34:56;14.82;;;3.63;;
60203;SDS011;46068;52.132;4.618;2023-10-13T14:37:22;11.63;;;3.13;;
60203;SDS011;46068;52.132;4.618;2023-10-13T14:39:52;14.95;;;3.40;;
60203;SDS011;46068;52.132;4.618;2023-10-13T14:42:21;11.90;;;2.63;;
60203;SDS011;46068;52.132;4.618;2023-10-13T14:44:47;20.10;;;3.35;;
60203;SDS011;46068;52.132;4.618;2023-10-13T14:47:20;13.95;;;3.13;;
60203;SDS011;46068;52.132;4.618;2023-10-13T14:49:49;20.88;;;3.28;;
60203;SDS011;46068;52.132;4.618;2023-10-13T14:52:15;24.02;;;4.10;;
60203;SDS011;46068;52.132;4.618;2023-10-13T14:54:43;17.75;;;4.20;;
60203;SDS011;46068;52.132;4.618;2023-10-13T14:57:09;21.52;;;4.28;;
60203;SDS011;46068;52.132;4.618;2023-10-13T14:59:35;19.85;;;4.88;;
60203;SDS011;46068;52.132;4.618;2023-10-13T15:02:03;22.67;;;5.95;;